Time;durP1;ratioP1;P1;durP2;ratioP2;P2;SDS_P1;SDS_P2;PMS_P1;PMS_P2;Temp;Humidity;BMP_temperature;BMP_pressure;BME280_temperature;BME280_humidity;BME280_pressure;Samples;Min_cycle;Max_cycle;Signal;HPM_P1;HPM_P2
2022/01/14 00:02:01;;;;;;;58.17;30.63;;;;;;;;;;5055118;28;20215;-70
2022/01/14 00:04:29;;;;;;;69.13;35.20;;;;;;;;;;5037479;28;20236;-67
2022/01/14 00:06:56;;;;;;;61.63;33.67;;;;;;;;;;5054852;28;20540;-66
2022/01/14 00:09:24;;;;;;;62.30;32.30;;;;;;;;;;5054486;28;20560;-65
2022/01/14 00:11:56;;;;;;;66.17;34.77;;;;;;;;;;5054677;28;20208;-65
2022/01/14 00:14:38;;;;;;;81.00;37.07;;;;;;;;;;5054410;28;20200;-65
2022/01/14 00:17:10;;;;;;;69.40;36.60;;;;;;;;;;5054734;28;20200;-65
2022/01/14 00:19:38;;;;;;;72.57;38.03;;;;;;;;;;5054643;28;20200;-68
2022/01/14 00:22:10;;;;;;;63.80;34.70;;;;;;;;;;5054637;28;20293;-66
2022/01/14 00:35:25;;;;;;;65.53;35.43;;;;;;;;;;5054200;28;20199;-68
2022/01/14 00:37:53;;;;;;;57.83;32.43;;;;;;;;;;5054342;28;20618;-66
2022/01/14 00:40:20;;;;;;;59.90;33.00;;;;;;;;;;5054267;28;20211;-69
2022/01/14 00:42:49;;;;;;;57.80;30.53;;;;;;;;;;5054363;28;20220;-68
2022/01/14 00:45:16;;;;;;;54.83;30.50;;;;;;;;;;5053880;28;20235;-66
2022/01/14 00:47:44;;;;;;;56.23;31.50;;;;;;;;;;5053984;28;20273;-66
2022/01/14 00:50:14;;;;;;;43.70;25.10;;;;;;;;;;5054218;28;20212;-70
2022/01/14 00:52:42;;;;;;;55.03;31.17;;;;;;;;;;5053766;28;20207;-65
2022/01/14 00:55:13;;;;;;;54.90;28.77;;;;;;;;;;5054198;28;20239;-65
2022/01/14 01:00:25;;;;;;;48.27;26.77;;;;;;;;;;5054030;28;20239;-69
2022/01/14 01:02:52;;;;;;;49.13;27.83;;;;;;;;;;5054076;28;20207;-72
2022/01/14 01:05:20;;;;;;;42.43;24.97;;;;;;;;;;5036303;28;20277;-67
2022/01/14 01:08:10;;;;;;;50.50;26.47;;;;;;;;;;5054151;28;20199;-67
2022/01/14 01:10:46;;;;;;;50.13;28.07;;;;;;;;;;5058105;28;20196;-66
2022/01/14 01:13:21;;;;;;;49.23;27.70;;;;;;;;;;5041888;28;20206;-66
2022/01/14 01:15:49;;;;;;;52.30;29.13;;;;;;;;;;5058061;28;20206;-65
2022/01/14 01:18:19;;;;;;;49.73;30.63;;;;;;;;;;5057810;28;20215;-65
2022/01/14 01:20:46;;;;;;;48.27;27.40;;;;;;;;;;5057978;28;20208;-67
2022/01/14 01:23:14;;;;;;;41.90;24.13;;;;;;;;;;5057687;28;20215;-69
2022/01/14 01:26:07;;;;;;;45.50;27.23;;;;;;;;;;5039792;28;20228;-69
2022/01/14 01:28:51;;;;;;;48.30;27.43;;;;;;;;;;5057870;28;20200;-69
2022/01/14 01:34:19;;;;;;;45.13;27.73;;;;;;;;;;5057553;28;20234;-65
2022/01/14 01:36:51;;;;;;;46.10;25.73;;;;;;;;;;5057707;28;20204;-68
2022/01/14 01:39:29;;;;;;;43.57;26.20;;;;;;;;;;5057510;28;20203;-66
2022/01/14 01:42:00;;;;;;;43.90;26.63;;;;;;;;;;5057392;28;20200;-66
2022/01/14 01:44:31;;;;;;;42.77;24.97;;;;;;;;;;5057670;28;20356;-66
2022/01/14 01:46:59;;;;;;;42.03;24.97;;;;;;;;;;5039674;28;20581;-66
2022/01/14 01:49:29;;;;;;;42.17;24.37;;;;;;;;;;5057139;28;20681;-65
2022/01/14 01:51:58;;;;;;;42.93;27.03;;;;;;;;;;5057218;28;20201;-67
2022/01/14 01:54:27;;;;;;;41.67;25.20;;;;;;;;;;5057497;28;20212;-65
2022/01/14 01:56:54;;;;;;;42.80;25.17;;;;;;;;;;5057113;28;20216;-65
2022/01/14 01:59:23;;;;;;;35.53;23.77;;;;;;;;;;5057328;28;20220;-66
2022/01/14 02:01:52;;;;;;;40.67;23.37;;;;;;;;;;5057199;28;20212;-71
2022/01/14 02:04:19;;;;;;;39.67;23.37;;;;;;;;;;5057090;28;20334;-65
2022/01/14 02:06:47;;;;;;;40.37;23.77;;;;;;;;;;5039466;28;20212;-65
2022/01/14 02:09:14;;;;;;;37.73;24.00;;;;;;;;;;5057123;28;20207;-65
2022/01/14 02:11:41;;;;;;;45.43;25.80;;;;;;;;;;5057025;28;20204;-65
2022/01/14 02:14:26;;;;;;;40.47;22.27;;;;;;;;;;5056856;28;20208;-65
2022/01/14 02:17:27;;;;;;;43.53;23.20;;;;;;;;;;5041909;28;20195;-65
2022/01/14 02:22:49;;;;;;;44.47;23.20;;;;;;;;;;5056896;28;20200;-65
2022/01/14 02:25:28;;;;;;;42.47;22.77;;;;;;;;;;5056719;28;20560;-65
2022/01/14 02:28:00;;;;;;;33.57;21.23;;;;;;;;;;5040513;28;20192;-65
2022/01/14 02:30:30;;;;;;;40.97;25.67;;;;;;;;;;5056382;28;20244;-65
2022/01/14 02:32:58;;;;;;;39.47;23.70;;;;;;;;;;5056498;28;20216;-65
2022/01/14 02:35:26;;;;;;;36.00;23.00;;;;;;;;;;5056627;28;20295;-65
2022/01/14 02:37:54;;;;;;;46.13;24.93;;;;;;;;;;5056551;28;20230;-65
2022/01/14 02:40:22;;;;;;;38.67;23.50;;;;;;;;;;5039046;28;20306;-65
2022/01/14 02:42:50;;;;;;;43.40;25.47;;;;;;;;;;5056158;28;20737;-66
2022/01/14 02:45:18;;;;;;;44.37;23.87;;;;;;;;;;5056361;28;20227;-65
2022/01/14 02:47:46;;;;;;;40.03;22.40;;;;;;;;;;5056439;28;20208;-66
2022/01/14 02:50:18;;;;;;;37.67;22.87;;;;;;;;;;5056410;28;20212;-65
2022/01/14 02:55:29;;;;;;;38.90;23.60;;;;;;;;;;5039502;28;20223;-66
2022/01/14 02:57:58;;;;;;;46.07;23.60;;;;;;;;;;5056226;28;20200;-65
2022/01/14 03:00:30;;;;;;;39.73;22.60;;;;;;;;;;5055704;28;20218;-65
2022/01/14 03:03:00;;;;;;;36.97;22.10;;;;;;;;;;5056195;28;20248;-68
2022/01/14 03:05:29;;;;;;;40.67;23.47;;;;;;;;;;5055940;28;20260;-65
2022/01/14 03:07:57;;;;;;;38.60;22.23;;;;;;;;;;5055941;28;20204;-65
2022/01/14 03:10:25;;;;;;;39.13;22.53;;;;;;;;;;5055946;28;20204;-65
2022/01/14 03:12:52;;;;;;;38.47;22.13;;;;;;;;;;5055915;28;20215;-69
2022/01/14 03:15:20;;;;;;;41.50;22.97;;;;;;;;;;5038073;28;20220;-65
2022/01/14 03:17:47;;;;;;;41.77;23.30;;;;;;;;;;5055929;28;20219;-65
2022/01/14 03:23:04;;;;;;;39.63;23.00;;;;;;;;;;5040142;28;20200;-65
2022/01/14 03:25:47;;;;;;;44.33;22.57;;;;;;;;;;5055680;28;20235;-66
2022/01/14 03:28:20;;;;;;;41.87;22.00;;;;;;;;;;5055434;28;20661;-65
2022/01/14 03:30:50;;;;;;;40.07;23.03;;;;;;;;;;5055257;28;20243;-66
2022/01/14 03:33:19;;;;;;;36.33;21.50;;;;;;;;;;5054854;28;20729;-65
2022/01/14 03:35:46;;;;;;;36.57;20.37;;;;;;;;;;5055342;28;20218;-65
2022/01/14 03:38:14;;;;;;;38.87;22.47;;;;;;;;;;5055053;28;20257;-65
2022/01/14 03:40:41;;;;;;;31.40;17.97;;;;;;;;;;5055437;28;20224;-65
2022/01/14 03:43:10;;;;;;;35.23;20.23;;;;;;;;;;5055312;28;20261;-65
2022/01/14 03:45:40;;;;;;;36.37;19.83;;;;;;;;;;5055235;28;20314;-65
2022/01/14 03:48:08;;;;;;;42.33;21.27;;;;;;;;;;5055042;28;20200;-65
2022/01/14 03:50:36;;;;;;;33.60;18.80;;;;;;;;;;5055170;28;20291;-68
2022/01/14 03:53:04;;;;;;;29.87;17.50;;;;;;;;;;5037645;28;20204;-65
2022/01/14 03:55:38;;;;;;;36.33;18.30;;;;;;;;;;5054891;28;20286;-64
2022/01/14 03:58:06;;;;;;;34.00;16.73;;;;;;;;;;5055060;28;20281;-65
2022/01/14 04:00:34;;;;;;;27.63;15.97;;;;;;;;;;5054501;28;20663;-65
2022/01/14 04:03:03;;;;;;;31.87;17.93;;;;;;;;;;5054880;28;20208;-65
2022/01/14 04:05:30;;;;;;;30.47;15.80;;;;;;;;;;5037003;28;20621;-67
2022/01/14 04:07:57;;;;;;;33.33;17.07;;;;;;;;;;5054598;28;20212;-65
2022/01/14 04:10:26;;;;;;;28.60;16.23;;;;;;;;;;5054799;28;20215;-65
2022/01/14 04:13:04;;;;;;;26.77;15.10;;;;;;;;;;5054524;28;20695;-65
2022/01/14 04:15:44;;;;;;;26.57;13.23;;;;;;;;;;5054618;28;20202;-65
2022/01/14 04:18:17;;;;;;;33.37;16.83;;;;;;;;;;5054488;28;20238;-65
2022/01/14 04:20:49;;;;;;;32.77;17.57;;;;;;;;;;5054381;28;20670;-64
2022/01/14 04:23:24;;;;;;;28.10;15.23;;;;;;;;;;5054606;28;20196;-65
2022/01/14 04:25:53;;;;;;;29.70;13.87;;;;;;;;;;5054594;28;20235;-66
2022/01/14 04:28:22;;;;;;;27.17;15.83;;;;;;;;;;5054485;28;20216;-65
2022/01/14 04:30:54;;;;;;;26.33;12.07;;;;;;;;;;5054258;28;20267;-66
2022/01/14 04:33:28;;;;;;;24.10;14.73;;;;;;;;;;5054532;28;20246;-65
2022/01/14 04:35:57;;;;;;;28.10;14.27;;;;;;;;;;5036805;28;20704;-67
2022/01/14 04:38:26;;;;;;;22.03;14.10;;;;;;;;;;5054193;28;20535;-66
2022/01/14 04:40:53;;;;;;;26.23;14.13;;;;;;;;;;5054503;28;20207;-65
2022/01/14 04:43:21;;;;;;;24.87;14.40;;;;;;;;;;5053451;28;20214;-66
2022/01/14 04:48:37;;;;;;;20.83;12.47;;;;;;;;;;5054051;28;20196;-65
2022/01/14 04:51:09;;;;;;;21.70;13.27;;;;;;;;;;5054125;28;20218;-64
2022/01/14 04:53:37;;;;;;;22.47;13.00;;;;;;;;;;5053984;28;20200;-65
2022/01/14 04:56:05;;;;;;;19.27;12.07;;;;;;;;;;5054223;28;20208;-65
2022/01/14 04:58:33;;;;;;;24.60;13.30;;;;;;;;;;5053814;28;20678;-67
2022/01/14 05:01:00;;;;;;;27.83;12.20;;;;;;;;;;5054074;28;20238;-65
2022/01/14 05:03:28;;;;;;;23.10;12.57;;;;;;;;;;5049083;28;20231;-66
2022/01/14 05:05:58;;;;;;;20.13;11.63;;;;;;;;;;5053333;28;20715;-67
2022/01/14 05:08:38;;;;;;;19.70;10.93;;;;;;;;;;5053071;28;20605;-66
2022/01/14 05:13:42;;;;;;;17.20;10.73;;;;;;;;;;5050729;28;20274;-66
2022/01/14 05:16:10;;;;;;;17.43;10.90;;;;;;;;;;5053129;28;20232;-66
2022/01/14 05:18:38;;;;;;;16.70;10.67;;;;;;;;;;5050876;28;20235;-66
2022/01/14 05:21:05;;;;;;;23.60;12.10;;;;;;;;;;5052266;28;20232;-65
2022/01/14 05:23:33;;;;;;;16.37;11.00;;;;;;;;;;5052967;28;20238;-65
2022/01/14 05:26:00;;;;;;;18.83;10.57;;;;;;;;;;5053438;28;20258;-65
2022/01/14 05:28:28;;;;;;;16.33;9.70;;;;;;;;;;5053044;28;20244;-66
2022/01/14 05:30:57;;;;;;;14.13;8.50;;;;;;;;;;5053399;28;20243;-66
2022/01/14 05:33:25;;;;;;;15.17;9.87;;;;;;;;;;5052556;28;20267;-66
2022/01/14 05:35:52;;;;;;;18.57;10.90;;;;;;;;;;5053359;28;20235;-70
2022/01/14 05:38:20;;;;;;;16.77;10.47;;;;;;;;;;5035356;28;20240;-68
2022/01/14 05:40:47;;;;;;;15.37;10.57;;;;;;;;;;5035708;28;20271;-66
2022/01/14 05:43:14;;;;;;;15.30;10.57;;;;;;;;;;5060880;28;20266;-66
2022/01/14 05:45:42;;;;;;;19.17;9.97;;;;;;;;;;5059056;28;20243;-67
2022/01/14 05:48:09;;;;;;;19.97;10.80;;;;;;;;;;5058417;28;20240;-66
2022/01/14 05:50:36;;;;;;;16.23;10.90;;;;;;;;;;5051653;28;20577;-66
2022/01/14 05:53:06;;;;;;;19.60;9.83;;;;;;;;;;5052573;28;20240;-64
2022/01/14 05:55:34;;;;;;;17.40;10.07;;;;;;;;;;5054900;28;20239;-66
2022/01/14 05:58:02;;;;;;;19.37;12.03;;;;;;;;;;5056217;28;20314;-75
2022/01/14 06:00:29;;;;;;;16.30;9.67;;;;;;;;;;5056087;28;20228;-66
2022/01/14 06:02:57;;;;;;;15.60;9.77;;;;;;;;;;5055705;28;20240;-67
2022/01/14 06:05:24;;;;;;;15.20;10.67;;;;;;;;;;5058929;28;20289;-72
2022/01/14 06:07:52;;;;;;;14.47;9.37;;;;;;;;;;5063958;28;20271;-69
2022/01/14 06:10:22;;;;;;;17.60;10.87;;;;;;;;;;5048990;28;20288;-65
2022/01/14 06:12:50;;;;;;;15.40;10.43;;;;;;;;;;5065432;28;20331;-65
2022/01/14 06:15:17;;;;;;;15.67;9.77;;;;;;;;;;5055863;28;20232;-65
2022/01/14 06:17:48;;;;;;;15.93;9.47;;;;;;;;;;5034722;28;20250;-67
2022/01/14 06:20:15;;;;;;;20.67;11.00;;;;;;;;;;5036934;28;20236;-67
2022/01/14 06:22:44;;;;;;;13.90;8.80;;;;;;;;;;5054881;28;20232;-67
2022/01/14 06:25:11;;;;;;;15.53;10.17;;;;;;;;;;5054255;28;20224;-68
2022/01/14 06:27:52;;;;;;;13.57;9.40;;;;;;;;;;5052417;28;20227;-69
2022/01/14 06:30:21;;;;;;;19.77;9.93;;;;;;;;;;5054135;28;20679;-69
2022/01/14 06:32:51;;;;;;;16.47;8.97;;;;;;;;;;5069005;28;20322;-68
2022/01/14 06:35:19;;;;;;;17.03;9.67;;;;;;;;;;5056414;28;20204;-68
2022/01/14 06:37:46;;;;;;;13.20;9.50;;;;;;;;;;5056270;28;20207;-68
2022/01/14 06:40:13;;;;;;;15.73;8.80;;;;;;;;;;5056231;28;20212;-68
2022/01/14 06:42:46;;;;;;;12.83;8.47;;;;;;;;;;5056036;28;20656;-69
2022/01/14 06:45:14;;;;;;;32.03;14.03;;;;;;;;;;5056135;28;20216;-68
2022/01/14 06:47:41;;;;;;;26.90;11.97;;;;;;;;;;5055767;28;20236;-71
2022/01/14 06:50:08;;;;;;;31.93;16.03;;;;;;;;;;5056267;28;20212;-68
2022/01/14 06:52:36;;;;;;;14.73;9.07;;;;;;;;;;5056033;28;20212;-67
2022/01/14 06:55:04;;;;;;;16.10;9.23;;;;;;;;;;5056111;28;20223;-67
2022/01/14 06:57:31;;;;;;;13.30;8.57;;;;;;;;;;5055992;28;20212;-67
2022/01/14 06:59:59;;;;;;;11.87;7.83;;;;;;;;;;5056097;28;20214;-67
2022/01/14 07:02:26;;;;;;;15.33;9.20;;;;;;;;;;5055551;28;20693;-67
2022/01/14 07:04:53;;;;;;;17.03;10.13;;;;;;;;;;5055842;28;20212;-68
2022/01/14 07:07:20;;;;;;;13.43;9.47;;;;;;;;;;5054706;28;20636;-67
2022/01/14 07:09:57;;;;;;;21.10;10.47;;;;;;;;;;5055905;28;20212;-67
2022/01/14 07:12:37;;;;;;;19.20;9.30;;;;;;;;;;5055921;28;20208;-67
2022/01/14 07:15:06;;;;;;;15.63;9.27;;;;;;;;;;5074375;28;20234;-67
2022/01/14 07:17:33;;;;;;;19.27;11.03;;;;;;;;;;5075956;28;20218;-67
2022/01/14 07:20:06;;;;;;;11.90;9.47;;;;;;;;;;5075677;28;20222;-67
2022/01/14 07:22:34;;;;;;;13.27;7.60;;;;;;;;;;5058930;28;20556;-67
2022/01/14 07:25:02;;;;;;;13.90;9.47;;;;;;;;;;5075888;28;20261;-67
2022/01/14 07:27:29;;;;;;;16.57;11.13;;;;;;;;;;5075677;28;20235;-67
2022/01/14 07:29:57;;;;;;;14.83;10.10;;;;;;;;;;5075218;28;20717;-67
2022/01/14 07:32:24;;;;;;;15.93;9.13;;;;;;;;;;5075540;28;20219;-67
2022/01/14 07:34:52;;;;;;;11.27;7.87;;;;;;;;;;5075514;28;20212;-67
2022/01/14 07:37:20;;;;;;;17.97;10.40;;;;;;;;;;5075219;28;20286;-67
2022/01/14 07:39:48;;;;;;;13.43;9.53;;;;;;;;;;5075408;28;20211;-67
2022/01/14 07:42:16;;;;;;;12.20;8.73;;;;;;;;;;5075223;28;20214;-68
2022/01/14 07:44:43;;;;;;;15.50;8.67;;;;;;;;;;5075270;28;20219;-68
2022/01/14 07:47:11;;;;;;;14.67;9.63;;;;;;;;;;5075287;28;20239;-68
2022/01/14 07:49:38;;;;;;;11.80;8.10;;;;;;;;;;5074819;28;20670;-67
2022/01/14 07:52:06;;;;;;;22.20;11.33;;;;;;;;;;5074914;28;20207;-68
2022/01/14 07:54:33;;;;;;;20.07;12.97;;;;;;;;;;5075282;28;20228;-67
2022/01/14 07:57:01;;;;;;;14.93;10.70;;;;;;;;;;5075220;28;20294;-68
2022/01/14 07:59:33;;;;;;;13.97;10.23;;;;;;;;;;5074949;28;20210;-67
2022/01/14 08:02:01;;;;;;;13.90;9.27;;;;;;;;;;5074841;28;20564;-68
2022/01/14 08:04:32;;;;;;;16.27;11.17;;;;;;;;;;5074580;28;20641;-68
2022/01/14 08:07:08;;;;;;;13.80;8.67;;;;;;;;;;5074843;28;20310;-68
2022/01/14 08:09:41;;;;;;;13.03;9.03;;;;;;;;;;5074692;28;20605;-68
2022/01/14 08:12:10;;;;;;;15.00;8.40;;;;;;;;;;5074921;28;20199;-68
2022/01/14 08:14:38;;;;;;;10.70;8.03;;;;;;;;;;5074775;28;20212;-68
2022/01/14 08:17:06;;;;;;;10.23;7.00;;;;;;;;;;5074563;28;20576;-68
2022/01/14 08:19:34;;;;;;;14.63;9.03;;;;;;;;;;5056867;28;20218;-68
2022/01/14 08:22:06;;;;;;;15.47;9.27;;;;;;;;;;5074345;28;20211;-68
2022/01/14 08:24:34;;;;;;;14.83;9.63;;;;;;;;;;5074358;28;20195;-68
2022/01/14 08:27:03;;;;;;;10.97;8.00;;;;;;;;;;5074214;28;20235;-68
2022/01/14 08:29:30;;;;;;;12.43;8.60;;;;;;;;;;5074352;28;20207;-68
2022/01/14 08:31:58;;;;;;;9.70;6.93;;;;;;;;;;5074310;28;20199;-68
2022/01/14 08:34:25;;;;;;;18.00;10.87;;;;;;;;;;5074392;28;20218;-68
2022/01/14 08:36:52;;;;;;;16.47;10.17;;;;;;;;;;5074151;28;20589;-68
2022/01/14 08:39:19;;;;;;;17.27;12.67;;;;;;;;;;5074054;28;20647;-68
2022/01/14 08:41:47;;;;;;;18.80;12.53;;;;;;;;;;5074394;28;20231;-68
2022/01/14 08:44:14;;;;;;;17.53;13.30;;;;;;;;;;5073959;28;20215;-68
2022/01/14 08:46:52;;;;;;;14.20;10.27;;;;;;;;;;5056387;28;20222;-68
2022/01/14 08:49:19;;;;;;;10.57;7.40;;;;;;;;;;5074168;28;20607;-68
2022/01/14 08:51:47;;;;;;;10.83;7.90;;;;;;;;;;5070656;28;20214;-67
2022/01/14 08:54:14;;;;;;;21.53;10.53;;;;;;;;;;5054114;28;20220;-68
2022/01/14 08:56:42;;;;;;;17.37;9.97;;;;;;;;;;5054212;28;20253;-68
2022/01/14 08:59:09;;;;;;;12.53;8.57;;;;;;;;;;5054309;28;20208;-68
2022/01/14 09:01:40;;;;;;;11.70;7.70;;;;;;;;;;5053891;28;20208;-68
2022/01/14 09:04:07;;;;;;;13.43;8.00;;;;;;;;;;5053910;28;20200;-68
2022/01/14 09:06:35;;;;;;;11.27;8.00;;;;;;;;;;5053845;28;20240;-68
2022/01/14 09:09:03;;;;;;;13.80;7.80;;;;;;;;;;5053828;28;20262;-68
2022/01/14 09:11:30;;;;;;;14.87;9.67;;;;;;;;;;5054003;28;20215;-68
2022/01/14 09:13:57;;;;;;;13.80;9.67;;;;;;;;;;5053713;28;20615;-68
2022/01/14 09:16:24;;;;;;;11.43;7.30;;;;;;;;;;5053971;28;20223;-68
2022/01/14 09:18:52;;;;;;;10.20;8.23;;;;;;;;;;5053631;28;20697;-68
2022/01/14 09:21:19;;;;;;;13.90;8.17;;;;;;;;;;5053936;28;20299;-68
2022/01/14 09:24:08;;;;;;;10.33;7.47;;;;;;;;;;5053953;28;20212;-68
2022/01/14 09:26:36;;;;;;;9.33;6.50;;;;;;;;;;5053841;28;20765;-68
2022/01/14 09:29:05;;;;;;;12.90;6.63;;;;;;;;;;5053636;28;20207;-68
2022/01/14 09:31:33;;;;;;;10.83;7.13;;;;;;;;;;5037560;28;20248;-67
2022/01/14 09:34:01;;;;;;;18.30;10.90;;;;;;;;;;5037842;28;20204;-68
2022/01/14 09:36:28;;;;;;;12.40;7.53;;;;;;;;;;5037891;28;20213;-68
2022/01/14 09:38:57;;;;;;;11.73;8.40;;;;;;;;;;5037400;28;20696;-68
2022/01/14 09:41:24;;;;;;;10.73;6.57;;;;;;;;;;5037745;28;20559;-68
2022/01/14 09:43:52;;;;;;;7.90;6.10;;;;;;;;;;5037399;28;20686;-68
2022/01/14 09:46:19;;;;;;;9.07;6.53;;;;;;;;;;5037303;28;20668;-68
2022/01/14 09:48:49;;;;;;;8.27;6.83;;;;;;;;;;5037381;28;20713;-68
2022/01/14 09:51:17;;;;;;;7.53;5.70;;;;;;;;;;5037733;28;20197;-68
2022/01/14 09:53:44;;;;;;;8.30;5.83;;;;;;;;;;5037686;28;20236;-68
2022/01/14 09:56:20;;;;;;;9.70;5.70;;;;;;;;;;5037497;28;20267;-68
2022/01/14 09:58:48;;;;;;;8.10;5.03;;;;;;;;;;5037504;28;20207;-68
2022/01/14 10:01:18;;;;;;;16.47;8.43;;;;;;;;;;5037473;28;20204;-68
2022/01/14 10:04:01;;;;;;;8.77;5.10;;;;;;;;;;5037136;28;20217;-68
2022/01/14 10:06:46;;;;;;;5.30;4.80;;;;;;;;;;5036893;28;20663;-68
2022/01/14 10:09:20;;;;;;;10.73;6.60;;;;;;;;;;5037381;28;20201;-68
2022/01/14 10:12:16;;;;;;;8.67;5.37;;;;;;;;;;5037198;28;20208;-69
2022/01/14 10:15:03;;;;;;;7.87;5.10;;;;;;;;;;5037185;28;20205;-68
2022/01/14 10:17:57;;;;;;;9.00;5.73;;;;;;;;;;5036997;28;20207;-68
2022/01/14 10:20:36;;;;;;;8.30;5.07;;;;;;;;;;5017262;28;20216;-68
2022/01/14 10:23:03;;;;;;;10.60;6.30;;;;;;;;;;5036964;28;20197;-68
2022/01/14 10:25:30;;;;;;;9.13;5.17;;;;;;;;;;5036743;28;20218;-68
2022/01/14 10:27:57;;;;;;;8.23;4.80;;;;;;;;;;5036624;28;20243;-68
2022/01/14 10:30:31;;;;;;;7.73;4.97;;;;;;;;;;5036599;28;20251;-71
2022/01/14 10:33:05;;;;;;;4.53;3.90;;;;;;;;;;5036545;28;20212;-68
2022/01/14 10:35:43;;;;;;;6.87;4.47;;;;;;;;;;5036601;28;20197;-68
2022/01/14 10:38:12;;;;;;;7.83;4.60;;;;;;;;;;5036383;28;20652;-68
2022/01/14 10:40:54;;;;;;;7.60;4.17;;;;;;;;;;5036187;28;20213;-68
2022/01/14 10:43:29;;;;;;;8.13;4.77;;;;;;;;;;5035991;28;20205;-68
2022/01/14 10:45:57;;;;;;;8.03;5.30;;;;;;;;;;5036516;28;20259;-69
2022/01/14 10:48:39;;;;;;;5.30;4.20;;;;;;;;;;5036344;28;20236;-68
2022/01/14 10:51:10;;;;;;;10.90;6.13;;;;;;;;;;5036492;28;20193;-68
2022/01/14 10:53:40;;;;;;;5.80;4.30;;;;;;;;;;5024670;28;20215;-67
2022/01/14 10:56:14;;;;;;;6.30;4.57;;;;;;;;;;5076329;28;20195;-68
2022/01/14 10:58:50;;;;;;;6.83;4.47;;;;;;;;;;5076068;28;20643;-68
2022/01/14 11:01:23;;;;;;;7.33;4.63;;;;;;;;;;5076342;28;20252;-67
2022/01/14 11:04:01;;;;;;;5.70;4.23;;;;;;;;;;5076338;28;20199;-68
2022/01/14 11:06:35;;;;;;;8.13;4.20;;;;;;;;;;5058332;28;20211;-68
2022/01/14 11:09:09;;;;;;;6.03;4.47;;;;;;;;;;5076061;28;20308;-68
2022/01/14 11:11:39;;;;;;;7.47;4.73;;;;;;;;;;5075752;28;20653;-68
2022/01/14 11:14:07;;;;;;;7.93;4.80;;;;;;;;;;5075907;28;20289;-68
2022/01/14 11:16:35;;;;;;;5.43;4.10;;;;;;;;;;5075916;28;20214;-68
2022/01/14 11:19:06;;;;;;;5.87;4.57;;;;;;;;;;5075516;28;20245;-68
2022/01/14 11:24:29;;;;;;;5.37;3.80;;;;;;;;;;5075807;28;20199;-69
2022/01/14 11:27:10;;;;;;;5.17;4.00;;;;;;;;;;5058143;28;20203;-69
2022/01/14 11:29:42;;;;;;;5.37;3.60;;;;;;;;;;5057636;28;20243;-69
2022/01/14 11:32:10;;;;;;;5.63;3.93;;;;;;;;;;5058063;28;20202;-69
2022/01/14 11:34:42;;;;;;;5.00;3.67;;;;;;;;;;5075374;28;20214;-69
2022/01/14 11:37:14;;;;;;;4.53;3.80;;;;;;;;;;5075424;28;20195;-69
2022/01/14 11:40:04;;;;;;;7.30;3.53;;;;;;;;;;5075180;28;20537;-69
2022/01/14 11:42:46;;;;;;;5.37;3.33;;;;;;;;;;5075166;28;20246;-69
2022/01/14 11:45:19;;;;;;;5.57;4.07;;;;;;;;;;5075425;28;20192;-69
2022/01/14 11:47:47;;;;;;;4.90;4.20;;;;;;;;;;5075024;28;20235;-69
2022/01/14 11:50:18;;;;;;;6.43;4.47;;;;;;;;;;5075287;28;20230;-69
2022/01/14 11:52:47;;;;;;;6.77;4.60;;;;;;;;;;5074801;28;20265;-69
2022/01/14 11:55:22;;;;;;;5.60;3.93;;;;;;;;;;5075049;28;20227;-69
2022/01/14 11:57:54;;;;;;;5.07;3.63;;;;;;;;;;5075178;28;20199;-69
2022/01/14 12:00:33;;;;;;;7.40;4.70;;;;;;;;;;5057566;28;20200;-69
2022/01/14 12:03:06;;;;;;;6.30;5.07;;;;;;;;;;5074992;28;20191;-69
2022/01/14 12:05:37;;;;;;;8.87;6.07;;;;;;;;;;5074890;28;20230;-69
2022/01/14 12:08:10;;;;;;;9.93;5.80;;;;;;;;;;5074805;28;20234;-69
2022/01/14 12:10:45;;;;;;;13.10;7.70;;;;;;;;;;5074881;28;20274;-69
2022/01/14 12:13:25;;;;;;;12.67;7.03;;;;;;;;;;5074662;28;20215;-69
2022/01/14 12:15:57;;;;;;;10.40;5.10;;;;;;;;;;5074542;28;20203;-69
2022/01/14 12:18:52;;;;;;;15.00;7.37;;;;;;;;;;5074849;28;20199;-69
2022/01/14 12:21:19;;;;;;;6.80;4.40;;;;;;;;;;5074388;28;20658;-69
2022/01/14 12:23:46;;;;;;;8.73;4.50;;;;;;;;;;5057012;28;20214;-69
2022/01/14 12:26:14;;;;;;;14.07;6.60;;;;;;;;;;5074281;28;20214;-69
2022/01/14 12:28:42;;;;;;;7.53;4.60;;;;;;;;;;5074499;28;20238;-69
2022/01/14 12:31:10;;;;;;;12.93;6.60;;;;;;;;;;5052900;28;20711;-70
2022/01/14 12:33:41;;;;;;;15.10;9.03;;;;;;;;;;5054481;28;20211;-69
2022/01/14 12:36:13;;;;;;;12.00;6.57;;;;;;;;;;5053188;28;20706;-69
2022/01/14 12:38:42;;;;;;;6.50;4.50;;;;;;;;;;5054456;28;20229;-69
2022/01/14 12:41:23;;;;;;;9.23;6.53;;;;;;;;;;5052044;28;20243;-68
2022/01/14 12:43:52;;;;;;;11.90;7.63;;;;;;;;;;5040323;28;20691;-70
2022/01/14 12:46:54;;;;;;;9.70;5.97;;;;;;;;;;5032984;28;20204;-77
2022/01/14 12:49:18;;;;;;;11.87;6.87;;;;;;;;;;5030435;28;20235;-68
2022/01/14 12:51:45;;;;;;;16.93;8.60;;;;;;;;;;5032997;28;20453;-68
2022/01/14 12:54:12;;;;;;;10.47;5.20;;;;;;;;;;5031672;28;20211;-67
2022/01/14 12:56:40;;;;;;;18.67;8.80;;;;;;;;;;5032973;28;20225;-69
2022/01/14 12:59:14;;;;;;;18.60;8.23;;;;;;;;;;5035413;28;20219;-67
2022/01/14 13:01:55;;;;;;;16.43;9.20;;;;;;;;;;5025752;28;20649;-66
2022/01/14 13:04:24;;;;;;;14.77;7.80;;;;;;;;;;5032225;28;20237;-66
2022/01/14 13:06:53;;;;;;;13.50;6.43;;;;;;;;;;5033136;28;20327;-66
2022/01/14 13:09:23;;;;;;;10.70;5.57;;;;;;;;;;5034087;28;20582;-66
2022/01/14 13:11:54;;;;;;;11.43;6.67;;;;;;;;;;5033044;28;20567;-67
2022/01/14 13:14:29;;;;;;;18.17;7.53;;;;;;;;;;5034005;28;20208;-68
2022/01/14 13:17:00;;;;;;;10.77;5.60;;;;;;;;;;5034134;28;20204;-67
2022/01/14 13:19:30;;;;;;;13.13;6.10;;;;;;;;;;5034187;28;20220;-67
2022/01/14 13:22:00;;;;;;;7.83;3.80;;;;;;;;;;5033411;28;20208;-67
2022/01/14 13:24:29;;;;;;;8.80;5.10;;;;;;;;;;5029982;28;20282;-67
2022/01/14 13:26:59;;;;;;;10.37;5.47;;;;;;;;;;5033231;28;20240;-67
2022/01/14 13:29:27;;;;;;;10.60;4.87;;;;;;;;;;5034321;28;20274;-68
2022/01/14 13:31:54;;;;;;;14.10;6.60;;;;;;;;;;5052843;28;20741;-67
2022/01/14 13:34:21;;;;;;;12.00;5.03;;;;;;;;;;5035101;28;20232;-67
2022/01/14 13:36:48;;;;;;;8.23;4.80;;;;;;;;;;5053209;28;20239;-67
2022/01/14 13:39:19;;;;;;;13.80;6.40;;;;;;;;;;5034521;28;20780;-68
2022/01/14 13:41:48;;;;;;;13.83;6.90;;;;;;;;;;5052882;28;20565;-67
2022/01/14 13:44:20;;;;;;;7.47;3.87;;;;;;;;;;5033573;28;20246;-68
2022/01/14 13:46:53;;;;;;;8.83;4.67;;;;;;;;;;5052920;28;20232;-67
2022/01/14 13:49:21;;;;;;;8.57;4.67;;;;;;;;;;5052781;28;20246;-66
2022/01/14 13:52:10;;;;;;;11.17;4.87;;;;;;;;;;5052722;28;20288;-64
2022/01/14 13:54:38;;;;;;;3.30;1.07;;;;;;;;;;5052650;28;20239;-66
2022/01/14 13:57:16;;;;;;;0.40;0.40;;;;;;;;;;5052685;28;20232;-65
2022/01/14 13:59:44;;;;;;;1.90;0.50;;;;;;;;;;5071371;28;20258;-66
2022/01/14 14:02:22;;;;;;;0.50;0.50;;;;;;;;;;5072823;28;20242;-65
2022/01/14 14:04:53;;;;;;;1.30;0.50;;;;;;;;;;5055097;28;20239;-64
2022/01/14 14:07:22;;;;;;;0.53;0.53;;;;;;;;;;5070666;28;20242;-65
2022/01/14 14:11:45;;;;;;;1.60;0.50;;;;;;;;;;5052255;28;20669;-65
2022/01/14 14:13:09;;;;;;;0.60;0.50;;;;;;;;;;5050614;28;20247;-66
2022/01/14 14:15:48;;;;;;;1.33;0.63;;;;;;;;;;5052239;28;20770;-67
2022/01/14 14:18:16;;;;;;;0.87;0.63;;;;;;;;;;5038981;28;20283;-67
2022/01/14 14:20:43;;;;;;;1.27;0.70;;;;;;;;;;5056408;28;20227;-68
2022/01/14 14:23:17;;;;;;;1.33;0.80;;;;;;;;;;5055322;28;20676;-69
2022/01/14 14:25:46;;;;;;;3.00;0.70;;;;;;;;;;5039331;28;20231;-66
2022/01/14 14:28:14;;;;;;;1.47;0.80;;;;;;;;;;5055780;28;20384;-68
2022/01/14 14:30:42;;;;;;;4.17;1.50;;;;;;;;;;5037291;28;20275;-66
2022/01/14 14:33:10;;;;;;;5.60;1.90;;;;;;;;;;5056066;28;20259;-66
2022/01/14 14:35:39;;;;;;;5.57;2.50;;;;;;;;;;5056317;28;20267;-66
2022/01/14 14:38:09;;;;;;;6.47;2.07;;;;;;;;;;5054854;28;20270;-66
2022/01/14 14:40:37;;;;;;;4.70;1.77;;;;;;;;;;5056237;28;20227;-69
2022/01/14 14:43:05;;;;;;;3.33;1.27;;;;;;;;;;5055911;28;20231;-68
2022/01/14 14:45:33;;;;;;;2.50;1.20;;;;;;;;;;5055091;28;20236;-67
2022/01/14 14:48:01;;;;;;;5.10;1.80;;;;;;;;;;5055538;28;20270;-66
2022/01/14 14:50:31;;;;;;;5.37;1.90;;;;;;;;;;5055790;28;20562;-65
2022/01/14 14:52:59;;;;;;;9.17;1.97;;;;;;;;;;5055213;28;20236;-66
2022/01/14 14:55:31;;;;;;;3.77;1.60;;;;;;;;;;5055510;28;20231;-66
2022/01/14 14:58:00;;;;;;;4.93;2.07;;;;;;;;;;5055920;28;20319;-67
2022/01/14 15:00:27;;;;;;;5.77;2.20;;;;;;;;;;5036844;28;20243;-66
2022/01/14 15:02:55;;;;;;;5.80;1.63;;;;;;;;;;5038349;28;20239;-66
2022/01/14 15:05:23;;;;;;;4.50;1.93;;;;;;;;;;5055243;28;20298;-66
2022/01/14 15:07:51;;;;;;;8.40;1.80;;;;;;;;;;5054903;28;20236;-66
2022/01/14 15:10:22;;;;;;;4.83;1.93;;;;;;;;;;5054736;28;20564;-67
2022/01/14 15:12:49;;;;;;;2.73;1.53;;;;;;;;;;5054122;28;20706;-62
2022/01/14 15:15:34;;;;;;;2.03;1.30;;;;;;;;;;5054095;28;20238;-66
2022/01/14 15:20:36;;;;;;;5.83;1.80;;;;;;;;;;5054933;28;20729;-65
2022/01/14 15:23:04;;;;;;;6.70;2.20;;;;;;;;;;5054394;28;20591;-65
2022/01/14 15:25:32;;;;;;;4.60;2.00;;;;;;;;;;5054736;28;20236;-64